Pagina principală
METAR-TAF:

METAR-TAF

Aeroporturi :

Wichita, Kansas, Statele Unite ale Americii

Latitudine: 37-38-50N, longitudine: 097-25-46W, elevație: 406 m

Observații meteo curente

Raportul a fost făcut în urmă cu 52 de minute, la 01:53 UTC
Vânt 11 kt de la Nord
Temperatură 21°C
Umiditate 56%
Presiune 1009 hPa
Vizibilitate: 16.1 km
Nori puțini la o înălțime de 25000 picior

METAR: KICT 220153Z 35011KT 10SM FEW250 21/12 A2980 RMK AO2 SLP077 T02110117

Ora: 21:45 (02:45 UTC)

Prognoză

Raportul a fost făcut în urmă cu 3 ore și 6 de minute, la 23:39 UTC
Prognoză valabilă de la 22 ora 00 UTC la 22 ora 24 UTC
Vânt 10 kt de la Nord
Vizibilitate: 10 km
Nori puțini la o înălțime de 5000 picior
De la 22 ora 1800 UTC
Vânt 7 kt de la Est/Nord-est
Vizibilitate: 10 km
Cer senin

TAF: KICT 212339Z 2200/2224 35010KT P6SM FEW050 FM221800 06007KT P6SM SKC

Observații și prognoze meteo pentru peste 4.000 de aeroporturi (rapoarte METAR și TAF).

Stațiile disponibile sunt reprezentate pe hartă prin puncte galbene și roșii.

Țineți indicatorul mouse-ului pe punctul dorit pentru a vedea denumirea stației.

Apoi, faceți clic pentru a vedea observațiile și prognozele meteorologice.

Pentru a schimba harta: Pentru mărire, faceți clic pe butoanele verzi cu cruce neagră; pentru micșorare, pe butonul verde cu o liniuță; pentru hărți învecinate, pe săgețile verzi.


METAR-TAF: